Seabourn Odyssey — C6XC6 — position and weather

sailwx.info

Track history (hours):
 
Tides and Currents Weather Stations Pressure Air Temp Water Temp Dewpoint Dewpoint Depression Visibility Wind Speed Wind Dir Waves Ship Positions

Seabourn Odyssey

Last reported at 2018-Feb-15 07:23 UTC. Time now 2018-Feb-18 10:47 UTC.
Position N 14°30' W 061°23'.

Length 198 m; draft 6.7 m.

Type: Ship. MMSI: 309416000.

Date/timePositionNaut miles runAvg speedWind from/ knotsBaromVisibWave heightAir tempDewpointWater temp
2018-Feb-15 07:23N 14°30' W 061°23'411.0
2018-Feb-15 07:00N 14°34' W 061°25'87 4.0
2018-Feb-14 09:20N 15°59' W 061°46'2310.8
2018-Feb-14 07:11N 16°18' W 062°00'313.3
2018-Feb-14 06:59N 16°20' W 062°01'1113.7
2018-Feb-14 06:11N 16°31' W 061°59'315.9
2018-Feb-14 06:00N 16°33' W 061°57'815.7
2018-Feb-14 05:30N 16°39' W 061°52'715.1
2018-Feb-14 05:00N 16°47' W 061°52'815.9
2018-Feb-14 04:30N 16°54' W 061°55'816.0
2018-Feb-14 04:00N 17°01' W 061°59'714.7
2018-Feb-14 03:30N 17°08' W 061°59'611.5
2018-Feb-14 03:00N 17°08' W 061°53'2 3.3
2018-Feb-14 02:29N 17°07' W 061°51'0 0.0
2018-Feb-14 01:59N 17°07' W 061°51'0 0.0
2018-Feb-14 01:29N 17°07' W 061°51'0 0.0
2018-Feb-14 00:59N 17°07' W 061°51'0 0.0
2018-Feb-14 00:29N 17°07' W 061°51'0 0.0
2018-Feb-13 23:59N 17°07' W 061°51'0 0.0
2018-Feb-13 23:29N 17°07' W 061°51'0 0.0
2018-Feb-13 22:59N 17°07' W 061°51'0 0.0
2018-Feb-13 22:29N 17°07' W 061°51'0 0.0
2018-Feb-13 21:59N 17°07' W 061°51'0 0.0
2018-Feb-13 21:29N 17°07' W 061°51'0 0.0
2018-Feb-13 20:59N 17°07' W 061°51'0 0.0
2018-Feb-13 20:26N 17°07' W 061°51'0 0.0
2018-Feb-13 19:59N 17°07' W 061°51'0 0.0
2018-Feb-13 19:29N 17°07' W 061°51'0 0.0
2018-Feb-13 18:59N 17°07' W 061°51'0 0.0
2018-Feb-13 18:29N 17°07' W 061°51'0 0.0
2018-Feb-13 17:59N 17°07' W 061°51'0 0.0
2018-Feb-13 17:29N 17°07' W 061°51'0 0.0
2018-Feb-13 16:59N 17°07' W 061°51'0 0.0
2018-Feb-13 16:29N 17°07' W 061°51'0 0.0
2018-Feb-13 15:59N 17°07' W 061°51'0 0.0
2018-Feb-13 15:29N 17°07' W 061°51'0 0.0
2018-Feb-13 14:59N 17°07' W 061°51'0 0.0
2018-Feb-13 14:29N 17°07' W 061°51'0 0.0
2018-Feb-13 13:59N 17°07' W 061°51'0 0.0
2018-Feb-13 13:29N 17°07' W 061°51'0 0.0
2018-Feb-13 12:59N 17°07' W 061°51'0 0.0
2018-Feb-13 12:29N 17°07' W 061°51'0 0.0
2018-Feb-13 11:59N 17°07' W 061°51'0 0.3
2018-Feb-13 11:30N 17°07' W 061°51'2 4.9
2018-Feb-13 11:00N 17°08' W 061°54'510.6
2018-Feb-13 10:30N 17°10' W 061°59'510.8
2018-Feb-13 10:00N 17°08' W 062°04'31 5.0
2018-Feb-13 03:54N 16°55' W 062°33'3 6.8
2018-Feb-13 03:29N 16°54' W 062°36'21 1.3
2018-Feb-12 10:40N 17°14' W 062°43'515.3
2018-Feb-12 10:19N 17°09' W 062°44'3016.7
2018-Feb-12 08:33N 16°42' W 062°32'116.5
2018-Feb-12 08:30N 16°41' W 062°32'916.4
2018-Feb-12 07:58N 16°33' W 062°28'14316.5
2018-Feb-11 23:19N 14°35' W 061°05'2 5.1
2018-Feb-11 23:00N 14°36' W 061°04'0 0.1
2018-Feb-11 21:30N 14°36' W 061°04'0 0.0
2018-Feb-11 20:51N 14°36' W 061°04'0 0.0
2018-Feb-11 20:30N 14°36' W 061°04'0 0.0
2018-Feb-11 19:57N 14°36' W 061°04'0 0.0
2018-Feb-11 19:30N 14°36' W 061°04'0 0.0
2018-Feb-11 18:57N 14°36' W 061°04'0 0.0
2018-Feb-11 15:27N 14°36' W 061°04'4 1.0
2018-Feb-11 11:58N 14°34' W 061°07'510.0
2018-Feb-11 11:28N 14°30' W 061°09'510.8
2018-Feb-11 11:00N 14°26' W 061°06'611.9
2018-Feb-11 10:30N 14°21' W 061°02'713.1
2018-Feb-11 10:00N 14°16' W 060°58'714.5
2018-Feb-11 09:30N 14°11' W 060°52'  
2018-Feb-07 22:53N 14°27' W 061°13'513.0
2018-Feb-07 22:30N 14°31' W 061°10'612.8
2018-Feb-07 22:00N 14°36' W 061°05'126 6.0
2018-Feb-07 01:07N 16°19' W 062°20'213.2
2018-Feb-07 00:58N 16°20' W 062°21'613.2
2018-Feb-07 00:30N 16°26' W 062°24'813.3
2018-Feb-06 23:52N 16°33' W 062°28'513.5
2018-Feb-06 23:30N 16°38' W 062°30'32 2.6
2018-Feb-06 10:54N 17°09' W 062°40'8 8.5
2018-Feb-06 09:59N 17°01' W 062°40'9 6.4
2018-Feb-06 08:36N 16°53' W 062°36'1 7.4
2018-Feb-06 08:30N 16°52' W 062°36'10 6.4
2018-Feb-06 06:56N 16°42' W 062°35'3 7.1
2018-Feb-06 06:27N 16°40' W 062°33'11 7.3
2018-Feb-06 04:55N 16°30' W 062°26'3 7.2
2018-Feb-06 04:30N 16°28' W 062°24'4 7.4
2018-Feb-06 03:54N 16°25' W 062°21'40 7.3
2018-Feb-05 22:26N 16°00' W 061°48'  
Track history (hours):
 
Tides and Currents Weather Stations Pressure Air Temp Water Temp Dewpoint Dewpoint Depression Visibility Wind Speed Wind Dir Waves Ship Positions

Seabourn Odyssey

Last reported at 2018-Feb-15 07:23 UTC. Time now 2018-Feb-18 10:47 UTC.
Position N 14°30' W 061°23'.

Length 198 m; draft 6.7 m.

Type: Ship. MMSI: 309416000.

Date/timePositionNaut miles runAvg speedWind from/ knotsBaromVisibWave heightAir tempDewpointWater temp
2018-Feb-15 07:23N 14°30' W 061°23'411.0
2018-Feb-15 07:00N 14°34' W 061°25'87 4.0
2018-Feb-14 09:20N 15°59' W 061°46'2310.8
2018-Feb-14 07:11N 16°18' W 062°00'313.3
2018-Feb-14 06:59N 16°20' W 062°01'1113.7
2018-Feb-14 06:11N 16°31' W 061°59'315.9
2018-Feb-14 06:00N 16°33' W 061°57'815.7
2018-Feb-14 05:30N 16°39' W 061°52'715.1
2018-Feb-14 05:00N 16°47' W 061°52'815.9
2018-Feb-14 04:30N 16°54' W 061°55'816.0
2018-Feb-14 04:00N 17°01' W 061°59'714.7
2018-Feb-14 03:30N 17°08' W 061°59'611.5
2018-Feb-14 03:00N 17°08' W 061°53'2 3.3
2018-Feb-14 02:29N 17°07' W 061°51'0 0.0
2018-Feb-14 01:59N 17°07' W 061°51'0 0.0
2018-Feb-14 01:29N 17°07' W 061°51'0 0.0
2018-Feb-14 00:59N 17°07' W 061°51'0 0.0
2018-Feb-14 00:29N 17°07' W 061°51'0 0.0
2018-Feb-13 23:59N 17°07' W 061°51'0 0.0
2018-Feb-13 23:29N 17°07' W 061°51'0 0.0
2018-Feb-13 22:59N 17°07' W 061°51'0 0.0
2018-Feb-13 22:29N 17°07' W 061°51'0 0.0
2018-Feb-13 21:59N 17°07' W 061°51'0 0.0
2018-Feb-13 21:29N 17°07' W 061°51'0 0.0
2018-Feb-13 20:59N 17°07' W 061°51'0 0.0
2018-Feb-13 20:26N 17°07' W 061°51'0 0.0
2018-Feb-13 19:59N 17°07' W 061°51'0 0.0
2018-Feb-13 19:29N 17°07' W 061°51'0 0.0
2018-Feb-13 18:59N 17°07' W 061°51'0 0.0
2018-Feb-13 18:29N 17°07' W 061°51'0 0.0
2018-Feb-13 17:59N 17°07' W 061°51'0 0.0
2018-Feb-13 17:29N 17°07' W 061°51'0 0.0
2018-Feb-13 16:59N 17°07' W 061°51'0 0.0
2018-Feb-13 16:29N 17°07' W 061°51'0 0.0
2018-Feb-13 15:59N 17°07' W 061°51'0 0.0
2018-Feb-13 15:29N 17°07' W 061°51'0 0.0
2018-Feb-13 14:59N 17°07' W 061°51'0 0.0
2018-Feb-13 14:29N 17°07' W 061°51'0 0.0
2018-Feb-13 13:59N 17°07' W 061°51'0 0.0
2018-Feb-13 13:29N 17°07' W 061°51'0 0.0
2018-Feb-13 12:59N 17°07' W 061°51'0 0.0
2018-Feb-13 12:29N 17°07' W 061°51'0 0.0
2018-Feb-13 11:59N 17°07' W 061°51'0 0.3
2018-Feb-13 11:30N 17°07' W 061°51'2 4.9
2018-Feb-13 11:00N 17°08' W 061°54'510.6
2018-Feb-13 10:30N 17°10' W 061°59'510.8
2018-Feb-13 10:00N 17°08' W 062°04'31 5.0
2018-Feb-13 03:54N 16°55' W 062°33'3 6.8
2018-Feb-13 03:29N 16°54' W 062°36'21 1.3
2018-Feb-12 10:40N 17°14' W 062°43'515.3
2018-Feb-12 10:19N 17°09' W 062°44'3016.7
2018-Feb-12 08:33N 16°42' W 062°32'116.5
2018-Feb-12 08:30N 16°41' W 062°32'916.4
2018-Feb-12 07:58N 16°33' W 062°28'14316.5
2018-Feb-11 23:19N 14°35' W 061°05'2 5.1
2018-Feb-11 23:00N 14°36' W 061°04'0 0.1
2018-Feb-11 21:30N 14°36' W 061°04'0 0.0
2018-Feb-11 20:51N 14°36' W 061°04'0 0.0
2018-Feb-11 20:30N 14°36' W 061°04'0 0.0
2018-Feb-11 19:57N 14°36' W 061°04'0 0.0
2018-Feb-11 19:30N 14°36' W 061°04'0 0.0
2018-Feb-11 18:57N 14°36' W 061°04'0 0.0
2018-Feb-11 15:27N 14°36' W 061°04'4 1.0
2018-Feb-11 11:58N 14°34' W 061°07'510.0
2018-Feb-11 11:28N 14°30' W 061°09'510.8
2018-Feb-11 11:00N 14°26' W 061°06'611.9
2018-Feb-11 10:30N 14°21' W 061°02'713.1
2018-Feb-11 10:00N 14°16' W 060°58'714.5
2018-Feb-11 09:30N 14°11' W 060°52'  
2018-Feb-07 22:53N 14°27' W 061°13'513.0
2018-Feb-07 22:30N 14°31' W 061°10'612.8
2018-Feb-07 22:00N 14°36' W 061°05'126 6.0
2018-Feb-07 01:07N 16°19' W 062°20'213.2
2018-Feb-07 00:58N 16°20' W 062°21'613.2
2018-Feb-07 00:30N 16°26' W 062°24'813.3
2018-Feb-06 23:52N 16°33' W 062°28'513.5
2018-Feb-06 23:30N 16°38' W 062°30'32 2.6
2018-Feb-06 10:54N 17°09' W 062°40'8 8.5
2018-Feb-06 09:59N 17°01' W 062°40'9 6.4
2018-Feb-06 08:36N 16°53' W 062°36'1 7.4
2018-Feb-06 08:30N 16°52' W 062°36'10 6.4
2018-Feb-06 06:56N 16°42' W 062°35'3 7.1
2018-Feb-06 06:27N 16°40' W 062°33'11 7.3
2018-Feb-06 04:55N 16°30' W 062°26'3 7.2
2018-Feb-06 04:30N 16°28' W 062°24'4 7.4
2018-Feb-06 03:54N 16°25' W 062°21'40 7.3
2018-Feb-05 22:26N 16°00' W 061°48'  

Dump ship's entire track history